Boston, MA (02101)

12:49 PM EDT on September 03, 2015 (GMT -0400)
North End waterfront Boston | | Change Station
CLOSE
Current Station
Personal Weather Station
Location: Boston, MA
Elevation: 39 ft
Nearby Weather Stations

Elev 39 ft 42.37 °N, 71.05 °W | Updated 27 seconds ago

Partly Cloudy
Partly Cloudy
84.0 °F
Feels Like 86 °F
N
1.1
Wind Variable Wind from WSW
Gusts 2.5 mph

Today
High -- | Low -- °F
--% Chance of Precip.
Yesterday
High -- | Low -- °F
Precip. -- in
6:11 AM 7:15 PM
Waning Gibbous, 69% visible
Pressure 29.86 in
Visibility 10.0 miles
Clouds Few 25000 ft
Heat Index 86 °F
Dew Point 67 °F
Humidity 56%
Rainfall 0.00 in
Snow Depth Not available.
UV 4.0 out of 12
Pollen 8.60 out of 12
Air Quality Not available.
Flu Activity Not available.
METAR KBOS 031554Z 08007KT 10SM FEW250 27/19 A2986 RMK AO2 SLP112 T02720189
Pressure 29.86 in
Visibility 10.0 miles
Clouds Few 25000 ft
Heat Index 86 °F
Dew Point 67 °F
Humidity 56%
Rainfall 0.00 in
Snow Depth Not available.
UV 4.0 out of 12
Pollen 8.60 out of 12
Air Quality Not available.
Flu Activity Not available.
METAR KBOS 031554Z 08007KT 10SM FEW250 27/19 A2986 RMK AO2 SLP112 T02720189

10-Day Weather Forecast

×

Almanac

Astronomy

Sep. 03, 2015 Rise Set
Actual Time
Civil Twilight
Nautical Twilight
Astronomical Twilight
Moon
Length of Visible Light
Length of Day
Tomorrow will be .
, % of the Moon is Illuminated

Today's Extremes

State Highs State Lows

Community

WunderPhotos

Upload Photos

1,851,988 photos uploaded!

WunderBlogs® & News

Nearby

Air Quality

  Air Quality AQ Index Pollutant
Not available.

Snow Depth

Station Depth Elevation

Earthquake Activity

City Distance Mag. Time & Date
Minimum magnitude displayed is 2.5.

Coastal Water Temperatures

Place Temperature

Stations

Nearby Weather Stations

Station Location Temp. Windchill Dew Point Humidity Wind Precip. Elev Updated Type